GFL weather

Floyd Bennett Memorial Airport
Glens Falls, New York, United States

Public forecast

Using degrees Fahrenheit for public forecast. Weather courtesy of forecast.io.

Current aviation weather report (METAR) for Floyd Bennett Memorial Airport

Report is more than 6 hours old.

Retrieved 2019/10/17 22:53 UTC (8 hours ago):

KGFL 172253Z AUTO A2934 RMK AO2 SLPNO PWINO FZRANO

Aviation forecast (TAF) for Floyd Bennett Memorial Airport

Retrieved 2019/10/18 06:42 UTC (36 minutes ago):

TAF KGFL 180540Z 1806/1906 28012KT P6SM VCSH OVC035 FM181400 30012G18KT P6SM OVC040 FM181800 31012G20KT P6SM BKN040 FM182200 31008KT P6SM SCT040 FM190300 30004KT P6SM FEW200 AMD NOT SKED